createdAt,value
2023-04-26T00:01:05.617Z,92.58
2023-04-26T00:03:33.011Z,93.47
2023-04-26T00:06:05.516Z,94.04
2023-04-26T00:08:32.004Z,93.91
2023-04-26T00:10:58.396Z,94.54
2023-04-26T00:13:25.044Z,94.15
2023-04-26T00:15:51.663Z,94.09
2023-04-26T00:18:18.256Z,93.27
2023-04-26T00:20:44.694Z,93.08
2023-04-26T00:23:11.089Z,93.70
2023-04-26T00:25:37.780Z,94.36
2023-04-26T00:28:04.454Z,94.93
2023-04-26T00:30:31.012Z,95.71
2023-04-26T00:32:57.468Z,96.13
2023-04-26T00:35:23.980Z,95.71
2023-04-26T00:37:50.707Z,95.58
2023-04-26T00:40:17.284Z,95.03
2023-04-26T00:42:43.742Z,95.01
2023-04-26T00:45:10.176Z,95.18
2023-04-26T00:47:36.702Z,94.53
2023-04-26T00:50:04.528Z,94.54
2023-04-26T00:52:31.029Z,94.35
2023-04-26T00:54:57.668Z,94.76
2023-04-26T00:57:24.098Z,94.94
2023-04-26T00:59:50.481Z,95.67
2023-04-26T01:02:17.596Z,95.79
2023-04-26T01:04:45.279Z,96.30
2023-04-26T01:07:11.930Z,97.18
2023-04-26T01:09:38.406Z,97.70
2023-04-26T01:12:05.411Z,98.03
2023-04-26T01:14:31.938Z,98.84
2023-04-26T01:16:58.432Z,99.57
2023-04-26T01:19:25.618Z,99.75
2023-04-26T01:21:52.084Z,100.00
2023-04-26T01:24:18.492Z,100.00
2023-04-26T01:26:46.502Z,100.00
2023-04-26T01:29:16.655Z,100.00
2023-04-26T01:31:43.329Z,100.00
2023-04-26T01:34:09.881Z,100.00
2023-04-26T01:36:36.339Z,100.00
2023-04-26T01:39:02.774Z,100.00
2023-04-26T01:41:29.177Z,100.00
2023-04-26T01:43:55.695Z,100.00
2023-04-26T01:46:22.493Z,100.00
2023-04-26T01:48:48.945Z,100.00
2023-04-26T01:51:15.344Z,100.00
2023-04-26T01:53:41.797Z,100.00
2023-04-26T01:56:08.229Z,100.00
2023-04-26T01:58:34.597Z,100.00
2023-04-26T02:01:08.857Z,100.00
2023-04-26T02:03:35.948Z,100.00
2023-04-26T02:06:02.833Z,100.00
2023-04-26T02:08:29.932Z,100.00
2023-04-26T02:10:56.375Z,100.00
2023-04-26T02:13:22.772Z,100.00
2023-04-26T02:15:49.991Z,100.00
2023-04-26T02:18:17.607Z,100.00
2023-04-26T02:20:45.655Z,100.00
2023-04-26T02:23:12.611Z,100.00
2023-04-26T02:25:39.175Z,100.00
2023-04-26T02:28:05.827Z,100.00
2023-04-26T02:30:32.227Z,100.00
2023-04-26T02:32:58.886Z,100.00
2023-04-26T02:35:25.636Z,100.00
2023-04-26T02:37:55.081Z,100.00
2023-04-26T02:40:21.611Z,100.00
2023-04-26T02:42:49.009Z,100.00
2023-04-26T02:45:15.442Z,100.00
2023-04-26T02:47:41.849Z,100.00
2023-04-26T02:50:09.125Z,100.00
2023-04-26T02:52:36.339Z,100.00
2023-04-26T02:55:06.495Z,100.00
2023-04-26T02:57:34.027Z,100.00
2023-04-26T03:00:01.164Z,100.00
2023-04-26T03:02:27.854Z,100.00
2023-04-26T03:04:55.892Z,100.00
2023-04-26T03:07:22.444Z,100.00
2023-04-26T03:09:48.896Z,100.00
2023-04-26T03:12:15.309Z,100.00
2023-04-26T03:14:41.808Z,100.00
2023-04-26T03:17:08.351Z,100.00
2023-04-26T03:19:34.742Z,100.00
2023-04-26T03:22:01.280Z,100.00
2023-04-26T03:24:27.723Z,100.00
2023-04-26T03:26:54.122Z,100.00
2023-04-26T03:29:20.515Z,100.00
2023-04-26T03:31:47.075Z,100.00
2023-04-26T03:34:13.450Z,100.00
2023-04-26T03:36:39.895Z,100.00
2023-04-26T03:39:06.381Z,100.00
2023-04-26T03:41:33.570Z,100.00
2023-04-26T03:44:00.009Z,100.00
2023-04-26T03:46:26.458Z,100.00
2023-04-26T03:48:53.267Z,100.00
2023-04-26T03:51:19.889Z,100.00
2023-04-26T03:53:48.571Z,100.00
2023-04-26T03:56:14.964Z,100.00
2023-04-26T03:58:42.094Z,100.00
2023-04-26T04:01:08.650Z,100.00
2023-04-26T04:03:35.827Z,100.00
2023-04-26T04:06:04.029Z,100.00
2023-04-26T04:08:30.549Z,100.00
2023-04-26T04:10:56.944Z,100.00
2023-04-26T04:13:23.336Z,100.00
2023-04-26T04:15:49.764Z,100.00
2023-04-26T04:18:16.304Z,100.00
2023-04-26T04:20:42.717Z,100.00
2023-04-26T04:23:09.867Z,100.00
2023-04-26T04:25:36.578Z,100.00
2023-04-26T04:28:03.590Z,100.00
2023-04-26T04:30:30.638Z,100.00
2023-04-26T04:32:59.172Z,100.00
2023-04-26T04:35:28.872Z,100.00
2023-04-26T04:37:58.975Z,100.00
2023-04-26T04:40:26.184Z,100.00
2023-04-26T04:42:53.419Z,100.00
2023-04-26T04:45:20.185Z,100.00
2023-04-26T04:47:46.620Z,100.00
2023-04-26T04:50:13.231Z,100.00
2023-04-26T04:52:39.631Z,100.00
2023-04-26T04:55:06.278Z,100.00
2023-04-26T04:57:32.650Z,100.00
2023-04-26T04:59:59.319Z,100.00
2023-04-26T05:02:26.016Z,100.00
2023-04-26T05:04:52.718Z,100.00
2023-04-26T05:07:19.235Z,100.00
2023-04-26T05:09:45.625Z,100.00
2023-04-26T05:12:12.072Z,100.00
2023-04-26T05:14:38.626Z,100.00
2023-04-26T05:17:05.046Z,100.00
2023-04-26T05:19:31.943Z,100.00
2023-04-26T05:21:59.134Z,100.00
2023-04-26T05:24:25.518Z,100.00
2023-04-26T05:26:51.931Z,100.00
2023-04-26T05:29:18.655Z,100.00
2023-04-26T05:31:45.122Z,100.00
2023-04-26T05:34:11.558Z,100.00
2023-04-26T05:36:38.083Z,100.00
2023-04-26T05:39:05.766Z,100.00
2023-04-26T05:41:32.174Z,100.00
2023-04-26T05:43:58.553Z,100.00
2023-04-26T05:46:25.077Z,100.00
2023-04-26T05:48:51.894Z,100.00
2023-04-26T05:51:18.315Z,100.00
2023-04-26T05:53:44.705Z,100.00
2023-04-26T05:56:11.083Z,100.00
2023-04-26T05:58:37.548Z,100.00
2023-04-26T06:01:03.972Z,100.00
2023-04-26T06:03:30.960Z,100.00
2023-04-26T06:05:59.186Z,100.00
2023-04-26T06:08:28.223Z,100.00
2023-04-26T06:10:54.632Z,100.00
2023-04-26T06:13:21.023Z,100.00
2023-04-26T06:15:47.473Z,100.00
2023-04-26T06:18:14.052Z,100.00
2023-04-26T06:20:41.002Z,100.00
2023-04-26T06:23:07.704Z,100.00
2023-04-26T06:25:34.215Z,100.00
2023-04-26T06:28:00.875Z,100.00
2023-04-26T06:30:27.365Z,100.00
2023-04-26T06:32:54.133Z,100.00
2023-04-26T06:35:23.279Z,100.00
2023-04-26T06:37:49.682Z,100.00
2023-04-26T06:40:16.473Z,100.00
2023-04-26T06:42:43.395Z,100.00
2023-04-26T06:45:10.612Z,100.00
2023-04-26T06:47:37.596Z,100.00
2023-04-26T06:50:04.877Z,100.00
2023-04-26T06:52:31.330Z,100.00
2023-04-26T06:55:00.942Z,100.00
2023-04-26T06:57:27.377Z,100.00
2023-04-26T06:59:53.773Z,100.00
2023-04-26T07:02:20.334Z,100.00
2023-04-26T07:04:47.009Z,100.00
2023-04-26T07:07:14.459Z,100.00
2023-04-26T07:09:41.005Z,100.00
2023-04-26T07:12:07.508Z,100.00
2023-04-26T07:14:37.130Z,100.00
2023-04-26T07:17:04.967Z,100.00
2023-04-26T07:19:31.358Z,100.00
2023-04-26T07:21:57.762Z,100.00
2023-04-26T07:24:24.158Z,98.46
2023-04-26T07:26:50.544Z,98.14
2023-04-26T07:29:18.773Z,96.98
2023-04-26T07:31:46.000Z,91.65
2023-04-26T07:34:13.000Z,89.11
2023-04-26T07:36:39.415Z,90.58
2023-04-26T07:39:06.506Z,88.35
2023-04-26T07:41:32.905Z,86.15
2023-04-26T07:43:59.399Z,85.79
2023-04-26T07:46:25.924Z,85.60
2023-04-26T07:48:52.389Z,84.38
2023-04-26T07:51:18.842Z,84.65
2023-04-26T07:53:45.243Z,84.79
2023-04-26T07:56:11.670Z,84.31
2023-04-26T07:58:39.519Z,82.71
2023-04-26T08:01:06.158Z,80.48
2023-04-26T08:03:32.985Z,79.68
2023-04-26T08:05:59.834Z,78.51
2023-04-26T08:08:26.920Z,76.17
2023-04-26T08:10:53.625Z,76.32
2023-04-26T08:13:20.423Z,76.15
2023-04-26T08:15:47.832Z,76.55
2023-04-26T08:18:14.293Z,76.54
2023-04-26T08:20:41.024Z,75.43
2023-04-26T08:23:07.400Z,74.63
2023-04-26T08:25:36.612Z,74.21
2023-04-26T08:28:03.074Z,73.69
2023-04-26T08:30:29.600Z,73.58
2023-04-26T08:32:56.581Z,72.28
2023-04-26T08:35:23.268Z,70.41
2023-04-26T08:37:49.697Z,70.69
2023-04-26T08:40:22.181Z,71.29
2023-04-26T08:42:48.717Z,69.97
2023-04-26T08:45:16.221Z,70.14
2023-04-26T08:47:50.186Z,67.68
2023-04-26T08:50:20.027Z,66.75
2023-04-26T08:52:48.578Z,67.63
2023-04-26T08:55:18.496Z,69.60
2023-04-26T08:57:49.173Z,69.69
2023-04-26T09:00:17.003Z,68.82
2023-04-26T09:02:51.050Z,67.90
2023-04-26T09:05:18.112Z,67.35
2023-04-26T09:07:45.697Z,68.20
2023-04-26T09:10:13.472Z,65.63
2023-04-26T09:12:40.642Z,67.10
2023-04-26T09:15:07.654Z,65.24
2023-04-26T09:17:38.896Z,64.55
2023-04-26T09:20:23.663Z,65.69
2023-04-26T09:22:53.134Z,64.84
2023-04-26T09:25:27.771Z,64.11
2023-04-26T09:27:54.325Z,63.42
2023-04-26T09:30:22.047Z,62.95
2023-04-26T09:32:48.412Z,62.69
2023-04-26T09:35:33.337Z,63.65
2023-04-26T09:38:13.854Z,62.15
2023-04-26T09:40:51.113Z,63.17
2023-04-26T09:43:18.208Z,62.41
2023-04-26T09:45:49.369Z,62.05
2023-04-26T09:48:18.124Z,62.69
2023-04-26T09:50:48.613Z,63.64
2023-04-26T09:53:38.409Z,63.96
2023-04-26T09:56:15.902Z,64.53
2023-04-26T09:58:52.536Z,64.67
2023-04-26T10:01:19.730Z,65.50
2023-04-26T10:03:46.945Z,64.51
2023-04-26T10:06:13.725Z,63.48
2023-04-26T10:08:40.300Z,62.63
2023-04-26T10:11:12.873Z,61.98
2023-04-26T10:13:41.457Z,61.96
2023-04-26T10:16:09.699Z,61.43
2023-04-26T10:18:36.375Z,62.47
2023-04-26T10:21:07.655Z,61.18
2023-04-26T10:23:34.656Z,61.10
2023-04-26T10:26:01.161Z,60.55
2023-04-26T10:28:50.839Z,62.88
2023-04-26T10:31:19.995Z,62.65
2023-04-26T10:34:19.126Z,63.58
2023-04-26T10:37:08.425Z,63.83
2023-04-26T10:39:36.285Z,63.99
2023-04-26T10:42:24.717Z,66.08
2023-04-26T10:44:52.990Z,67.00
2023-04-26T10:47:25.350Z,67.28
2023-04-26T10:49:52.121Z,66.12
2023-04-26T10:52:20.395Z,65.96
2023-04-26T10:54:51.196Z,64.96
2023-04-26T10:57:17.988Z,64.14
2023-04-26T11:00:10.685Z,62.67
2023-04-26T11:02:51.864Z,60.33
2023-04-26T11:05:37.492Z,59.40
2023-04-26T11:08:25.686Z,57.58
2023-04-26T11:11:02.125Z,56.79
2023-04-26T11:13:37.918Z,58.46
2023-04-26T11:16:11.798Z,57.53
2023-04-26T11:18:41.814Z,56.88
2023-04-26T11:21:08.910Z,58.10
2023-04-26T11:23:36.408Z,58.44
2023-04-26T11:26:05.086Z,58.88
2023-04-26T11:28:34.051Z,58.50
2023-04-26T11:31:00.876Z,57.70
2023-04-26T11:33:27.556Z,57.48
2023-04-26T11:35:58.056Z,56.62
2023-04-26T11:38:25.576Z,56.57
2023-04-26T11:41:03.029Z,56.39
2023-04-26T11:43:39.364Z,55.48
2023-04-26T11:46:07.361Z,54.88
2023-04-26T11:48:35.876Z,52.89
2023-04-26T11:51:07.304Z,51.77
2023-04-26T11:53:38.757Z,49.05
2023-04-26T11:56:17.032Z,48.14
2023-04-26T11:58:53.137Z,49.47
2023-04-26T12:01:21.070Z,48.50
2023-04-26T12:03:54.117Z,48.90
2023-04-26T12:06:21.433Z,49.84
2023-04-26T12:08:51.905Z,50.19
2023-04-26T12:11:18.770Z,51.01
2023-04-26T12:13:46.584Z,52.98
2023-04-26T12:16:25.663Z,54.43
2023-04-26T12:18:54.618Z,55.15
2023-04-26T12:21:21.357Z,55.68
2023-04-26T12:23:48.913Z,56.62
2023-04-26T12:26:15.461Z,57.06
2023-04-26T12:28:42.089Z,58.03
2023-04-26T12:31:08.923Z,58.11
2023-04-26T12:33:36.041Z,57.22
2023-04-26T12:36:10.324Z,57.83
2023-04-26T12:38:37.239Z,57.70
2023-04-26T12:41:04.152Z,55.87
2023-04-26T12:43:30.648Z,56.96
2023-04-26T12:45:57.156Z,56.02
2023-04-26T12:48:23.817Z,54.80
2023-04-26T12:50:51.296Z,52.13
2023-04-26T12:53:18.516Z,51.89
2023-04-26T12:55:44.986Z,50.97
2023-04-26T12:58:11.644Z,52.16
2023-04-26T13:00:38.208Z,51.10
2023-04-26T13:03:04.812Z,50.68
2023-04-26T13:05:32.223Z,50.54
2023-04-26T13:08:00.366Z,51.24
2023-04-26T13:10:26.985Z,52.48
2023-04-26T13:12:53.874Z,51.92
2023-04-26T13:15:21.496Z,52.55
2023-04-26T13:17:47.926Z,52.98
2023-04-26T13:20:14.374Z,53.09
2023-04-26T13:22:42.438Z,54.16
2023-04-26T13:25:10.075Z,52.54
2023-04-26T13:27:36.829Z,51.12
2023-04-26T13:30:03.800Z,50.27
2023-04-26T13:32:30.191Z,50.56
2023-04-26T13:34:56.880Z,50.19
2023-04-26T13:37:23.778Z,49.68
2023-04-26T13:39:50.266Z,49.60
2023-04-26T13:42:18.224Z,48.57
2023-04-26T13:44:44.635Z,48.27
2023-04-26T13:47:11.165Z,47.25
2023-04-26T13:49:39.141Z,47.91
2023-04-26T13:52:05.734Z,47.50
2023-04-26T13:54:32.154Z,47.93
2023-04-26T13:56:58.864Z,49.17
2023-04-26T13:59:25.428Z,48.67
2023-04-26T14:01:54.280Z,50.18
2023-04-26T14:04:21.839Z,50.25
2023-04-26T14:06:48.366Z,49.61
2023-04-26T14:09:14.825Z,50.46
2023-04-26T14:11:41.267Z,48.73
2023-04-26T14:14:07.810Z,47.89
2023-04-26T14:16:34.242Z,47.85
2023-04-26T14:19:01.754Z,48.63
2023-04-26T14:21:28.184Z,46.86
2023-04-26T14:23:54.840Z,46.62
2023-04-26T14:26:21.525Z,47.41
2023-04-26T14:28:48.022Z,47.76
2023-04-26T14:31:14.581Z,48.92
2023-04-26T14:33:41.022Z,48.63
2023-04-26T14:36:08.331Z,48.80
2023-04-26T14:38:34.835Z,47.39
2023-04-26T14:41:01.548Z,48.29
2023-04-26T14:43:27.972Z,48.86
2023-04-26T14:45:55.561Z,49.41
2023-04-26T14:48:22.725Z,51.16
2023-04-26T14:50:49.100Z,50.93
2023-04-26T14:53:15.871Z,50.72
2023-04-26T14:55:42.254Z,50.38
2023-04-26T14:58:08.684Z,51.68
2023-04-26T15:00:35.057Z,51.08
2023-04-26T15:03:01.897Z,50.69
2023-04-26T15:05:28.425Z,52.18
2023-04-26T15:07:54.857Z,52.08
2023-04-26T15:10:21.279Z,53.02
2023-04-26T15:12:47.717Z,52.65
2023-04-26T15:15:15.313Z,52.58
2023-04-26T15:17:41.736Z,52.86
2023-04-26T15:20:09.480Z,51.46
2023-04-26T15:22:38.102Z,50.78
2023-04-26T15:25:06.161Z,49.46
2023-04-26T15:27:35.234Z,48.38
2023-04-26T15:30:03.572Z,46.30
2023-04-26T15:32:30.257Z,46.33
2023-04-26T15:34:56.856Z,45.96
2023-04-26T15:37:23.410Z,46.31
2023-04-26T15:39:49.809Z,46.52
2023-04-26T15:42:16.204Z,46.53
2023-04-26T15:44:42.575Z,44.98
2023-04-26T15:47:08.952Z,43.65
2023-04-26T15:49:35.394Z,43.44
2023-04-26T15:52:01.779Z,43.09
2023-04-26T15:54:28.223Z,43.12
2023-04-26T15:56:55.199Z,43.76
2023-04-26T15:59:21.591Z,44.63
2023-04-26T16:01:48.033Z,46.55
2023-04-26T16:04:14.748Z,47.82
2023-04-26T16:06:42.068Z,49.76
2023-04-26T16:09:23.837Z,51.35
2023-04-26T16:11:51.464Z,52.20
2023-04-26T16:14:17.861Z,53.09
2023-04-26T16:16:45.833Z,54.72
2023-04-26T16:19:12.413Z,54.91
2023-04-26T16:21:40.110Z,55.54
2023-04-26T16:24:08.775Z,55.39
2023-04-26T16:26:35.394Z,55.49
2023-04-26T16:29:01.816Z,54.41
2023-04-26T16:31:28.288Z,54.23
2023-04-26T16:33:54.697Z,54.19
2023-04-26T16:36:21.244Z,54.31
2023-04-26T16:38:47.644Z,54.24
2023-04-26T16:41:14.021Z,54.94
2023-04-26T16:43:40.583Z,54.11
2023-04-26T16:46:07.908Z,54.49
2023-04-26T16:48:35.452Z,54.75
2023-04-26T16:51:06.380Z,55.47
2023-04-26T16:53:33.762Z,55.18
2023-04-26T16:56:00.395Z,56.34
2023-04-26T16:58:26.836Z,55.57
2023-04-26T17:00:53.339Z,56.45
2023-04-26T17:03:20.103Z,55.88
2023-04-26T17:05:47.649Z,55.66
2023-04-26T17:08:14.879Z,56.57
2023-04-26T17:10:42.411Z,55.71
2023-04-26T17:13:09.017Z,55.82
2023-04-26T17:15:36.169Z,56.17
2023-04-26T17:18:04.361Z,55.19
2023-04-26T17:20:31.868Z,55.52
2023-04-26T17:22:59.060Z,56.61
2023-04-26T17:25:25.979Z,57.52
2023-04-26T17:27:52.606Z,56.57
2023-04-26T17:30:19.977Z,56.68
2023-04-26T17:32:46.490Z,56.92
2023-04-26T17:35:13.420Z,56.73
2023-04-26T17:37:41.841Z,57.61
2023-04-26T17:40:09.085Z,57.13
2023-04-26T17:42:35.629Z,57.50
2023-04-26T17:45:02.088Z,56.78
2023-04-26T17:47:28.864Z,57.55
2023-04-26T17:49:55.365Z,57.59
2023-04-26T17:52:21.803Z,58.11
2023-04-26T17:54:48.248Z,59.08
2023-04-26T17:57:17.749Z,59.01
2023-04-26T17:59:44.316Z,58.76
2023-04-26T18:02:10.757Z,59.11
2023-04-26T18:04:37.584Z,59.23
2023-04-26T18:07:04.441Z,58.60
2023-04-26T18:09:31.146Z,58.63
2023-04-26T18:11:57.529Z,58.63
2023-04-26T18:14:24.966Z,58.53
2023-04-26T18:16:51.503Z,59.34
2023-04-26T18:19:18.124Z,59.71
2023-04-26T18:21:44.511Z,60.57
2023-04-26T18:24:11.242Z,60.95
2023-04-26T18:26:39.211Z,60.32
2023-04-26T18:29:07.427Z,60.90
2023-04-26T18:31:34.071Z,60.57
2023-04-26T18:34:00.655Z,60.44
2023-04-26T18:36:27.193Z,61.00
2023-04-26T18:38:54.193Z,60.47
2023-04-26T18:41:21.231Z,60.88
2023-04-26T18:43:47.620Z,61.29
2023-04-26T18:46:14.026Z,61.21
2023-04-26T18:48:40.431Z,61.51
2023-04-26T18:51:06.901Z,61.62
2023-04-26T18:53:33.307Z,61.41
2023-04-26T18:55:59.838Z,61.98
2023-04-26T18:58:26.208Z,63.08
2023-04-26T19:00:53.404Z,62.93
2023-04-26T19:03:20.127Z,63.90
2023-04-26T19:05:46.874Z,64.46
2023-04-26T19:08:13.329Z,65.17
2023-04-26T19:10:39.713Z,65.70
2023-04-26T19:13:06.312Z,65.51
2023-04-26T19:15:32.710Z,66.60
2023-04-26T19:17:59.141Z,66.90
2023-04-26T19:20:26.700Z,67.36
2023-04-26T19:22:53.245Z,67.42
2023-04-26T19:25:23.009Z,68.36
2023-04-26T19:27:50.131Z,67.23
2023-04-26T19:30:16.522Z,67.52
2023-04-26T19:32:42.937Z,67.89
2023-04-26T19:35:09.751Z,67.90
2023-04-26T19:37:36.369Z,68.39
2023-04-26T19:40:05.942Z,68.79
2023-04-26T19:42:32.396Z,68.83
2023-04-26T19:44:58.796Z,68.57
2023-04-26T19:47:25.271Z,69.34
2023-04-26T19:49:52.994Z,70.67
2023-04-26T19:52:19.733Z,70.21
2023-04-26T19:54:46.223Z,70.28
2023-04-26T19:57:12.594Z,69.83
2023-04-26T19:59:38.973Z,69.44
2023-04-26T20:02:06.630Z,68.93
2023-04-26T20:04:33.300Z,68.92
2023-04-26T20:06:59.741Z,68.55
2023-04-26T20:09:26.272Z,68.41
2023-04-26T20:11:53.108Z,68.51
2023-04-26T20:14:19.515Z,68.41
2023-04-26T20:16:45.971Z,68.73
2023-04-26T20:19:12.441Z,69.57
2023-04-26T20:21:38.844Z,70.09
2023-04-26T20:24:05.609Z,70.78
2023-04-26T20:26:32.008Z,69.89
2023-04-26T20:28:58.401Z,69.37
2023-04-26T20:31:24.865Z,69.91
2023-04-26T20:33:51.422Z,70.38
2023-04-26T20:36:18.129Z,69.83
2023-04-26T20:38:44.595Z,69.89
2023-04-26T20:41:10.983Z,70.96
2023-04-26T20:43:37.430Z,71.94
2023-04-26T20:46:03.894Z,71.86
2023-04-26T20:48:30.417Z,71.73
2023-04-26T20:50:58.679Z,71.98
2023-04-26T20:53:25.113Z,72.24
2023-04-26T20:55:52.855Z,71.65
2023-04-26T20:58:19.354Z,72.08
2023-04-26T21:00:48.909Z,72.99
2023-04-26T21:03:15.453Z,73.10
2023-04-26T21:05:41.882Z,73.49
2023-04-26T21:08:08.299Z,73.70
2023-04-26T21:10:34.738Z,73.01
2023-04-26T21:13:01.176Z,73.00
2023-04-26T21:15:27.643Z,72.91
2023-04-26T21:17:54.185Z,74.52
2023-04-26T21:20:20.614Z,76.21
2023-04-26T21:22:47.007Z,77.61
2023-04-26T21:25:16.802Z,77.88
2023-04-26T21:27:43.332Z,77.94
2023-04-26T21:30:11.179Z,78.45
2023-04-26T21:32:40.130Z,77.00
2023-04-26T21:35:07.505Z,77.07
2023-04-26T21:37:33.897Z,78.56
2023-04-26T21:40:00.428Z,79.26
2023-04-26T21:42:27.568Z,79.13
2023-04-26T21:44:53.927Z,78.76
2023-04-26T21:47:20.352Z,78.80
2023-04-26T21:49:46.736Z,78.54
2023-04-26T21:52:13.186Z,77.33
2023-04-26T21:54:39.637Z,77.76
2023-04-26T21:57:06.736Z,79.02
2023-04-26T21:59:33.603Z,79.62
2023-04-26T22:02:00.121Z,80.03
2023-04-26T22:04:26.665Z,80.06
2023-04-26T22:06:53.115Z,80.88
2023-04-26T22:09:20.885Z,80.63
2023-04-26T22:11:47.340Z,80.25
2023-04-26T22:14:14.024Z,79.94
2023-04-26T22:16:40.469Z,79.97
2023-04-26T22:19:06.899Z,79.81
2023-04-26T22:21:33.303Z,82.02
2023-04-26T22:23:59.867Z,83.66
2023-04-26T22:26:26.711Z,84.65
2023-04-26T22:28:53.126Z,85.82
2023-04-26T22:31:19.612Z,86.40
2023-04-26T22:33:46.262Z,86.48
2023-04-26T22:36:13.084Z,86.96
2023-04-26T22:38:39.737Z,87.24
2023-04-26T22:41:07.174Z,88.02
2023-04-26T22:43:34.384Z,88.60
2023-04-26T22:46:01.016Z,89.41
2023-04-26T22:48:27.525Z,89.83
2023-04-26T22:50:53.957Z,89.57
2023-04-26T22:53:21.362Z,89.79
2023-04-26T22:55:47.807Z,89.74
2023-04-26T22:58:14.207Z,89.50
2023-04-26T23:00:40.575Z,89.27
2023-04-26T23:03:07.007Z,90.85
2023-04-26T23:05:33.418Z,91.71
2023-04-26T23:07:59.805Z,92.44
2023-04-26T23:10:26.283Z,93.05
2023-04-26T23:12:52.886Z,93.76
2023-04-26T23:15:19.463Z,95.15
2023-04-26T23:17:46.532Z,95.17
2023-04-26T23:20:13.057Z,95.35
2023-04-26T23:22:40.865Z,96.18
2023-04-26T23:25:08.731Z,97.15
2023-04-26T23:27:35.339Z,97.01
2023-04-26T23:30:01.755Z,97.09
2023-04-26T23:32:28.262Z,97.37
2023-04-26T23:34:54.712Z,97.71
2023-04-26T23:37:21.297Z,98.04
2023-04-26T23:39:47.678Z,97.98
2023-04-26T23:42:14.063Z,97.60
2023-04-26T23:44:40.659Z,96.98
2023-04-26T23:47:07.030Z,96.54
2023-04-26T23:49:33.410Z,96.41
2023-04-26T23:51:59.852Z,96.30
2023-04-26T23:54:26.625Z,95.10
2023-04-26T23:56:53.044Z,95.62
2023-04-26T23:59:19.456Z,96.03
